createdAt,value
2017-11-16T00:01:48.936Z,33.95
2017-11-16T00:04:17.464Z,39.28
2017-11-16T00:06:46.636Z,36.95
2017-11-16T00:09:15.032Z,39.50
2017-11-16T00:11:44.201Z,37.88
2017-11-16T00:14:12.588Z,36.92
2017-11-16T00:16:40.995Z,36.78
2017-11-16T00:19:10.132Z,39.20
2017-11-16T00:21:38.510Z,33.88
2017-11-16T00:24:06.912Z,37.63
2017-11-16T00:26:35.301Z,32.88
2017-11-16T00:29:04.042Z,33.85
2017-11-16T00:31:32.422Z,36.00
2017-11-16T00:34:00.801Z,36.05
2017-11-16T00:36:29.206Z,36.75
2017-11-16T00:38:57.583Z,37.60
2017-11-16T00:41:26.955Z,36.55
2017-11-16T00:43:55.327Z,34.30
2017-11-16T00:46:23.727Z,35.80
2017-11-16T00:48:52.136Z,37.90
2017-11-16T00:51:20.516Z,38.60
2017-11-16T00:53:48.891Z,39.33
2017-11-16T00:56:17.298Z,39.65
2017-11-16T00:58:46.469Z,39.55
2017-11-16T01:01:14.867Z,41.10
2017-11-16T01:03:44.046Z,42.40
2017-11-16T01:06:12.437Z,38.92
2017-11-16T01:08:41.613Z,40.30
2017-11-16T01:11:09.998Z,36.58
2017-11-16T01:13:38.513Z,38.67
2017-11-16T01:16:06.905Z,35.47
2017-11-16T01:18:35.282Z,35.92
2017-11-16T01:21:03.695Z,35.58
2017-11-16T01:23:32.083Z,34.03
2017-11-16T01:26:01.163Z,35.15
2017-11-16T01:28:29.547Z,35.90
2017-11-16T01:30:57.923Z,37.65
2017-11-16T01:33:26.331Z,35.40
2017-11-16T01:35:54.715Z,37.10
2017-11-16T01:38:23.896Z,38.00
2017-11-16T01:40:52.292Z,36.25
2017-11-16T01:43:21.433Z,34.70
2017-11-16T01:45:49.831Z,33.72
2017-11-16T01:48:18.195Z,37.50
2017-11-16T01:50:46.714Z,37.70
2017-11-16T01:53:15.089Z,38.95
2017-11-16T01:55:43.464Z,35.17
2017-11-16T01:58:11.870Z,38.72
2017-11-16T02:00:41.012Z,39.10
2017-11-16T02:03:09.412Z,39.25
2017-11-16T02:05:37.793Z,38.08
2017-11-16T02:08:06.207Z,38.67
2017-11-16T02:10:35.356Z,37.80
2017-11-16T02:13:03.764Z,41.15
2017-11-16T02:15:32.181Z,41.65
2017-11-16T02:18:00.556Z,38.00
2017-11-16T02:20:29.164Z,38.78
2017-11-16T02:22:57.552Z,37.38
2017-11-16T02:25:25.952Z,43.47
2017-11-16T02:27:54.360Z,36.60
2017-11-16T02:30:23.509Z,40.85
2017-11-16T02:32:52.037Z,40.50
2017-11-16T02:35:21.286Z,41.80
2017-11-16T02:37:49.669Z,41.67
2017-11-16T02:40:18.083Z,42.08
2017-11-16T02:42:47.250Z,43.17
2017-11-16T02:45:15.945Z,37.08
2017-11-16T02:47:44.345Z,39.10
2017-11-16T02:50:13.491Z,40.33
2017-11-16T02:52:41.910Z,38.92
2017-11-16T02:55:10.299Z,40.60
2017-11-16T02:57:38.721Z,39.58
2017-11-16T03:00:07.102Z,43.00
2017-11-16T03:02:35.475Z,41.08
2017-11-16T03:05:03.904Z,41.92
2017-11-16T03:07:32.281Z,42.65
2017-11-16T03:10:00.943Z,41.95
2017-11-16T03:12:29.336Z,42.25
2017-11-16T03:14:57.726Z,41.05
2017-11-16T03:17:26.171Z,40.28
2017-11-16T03:19:54.528Z,42.15
2017-11-16T03:22:22.952Z,44.17
2017-11-16T03:24:51.332Z,41.70
2017-11-16T03:27:19.711Z,43.47
2017-11-16T03:29:48.134Z,46.88
2017-11-16T03:32:16.511Z,43.50
2017-11-16T03:34:44.927Z,42.58
2017-11-16T03:37:13.299Z,42.90
2017-11-16T03:39:41.705Z,41.22
2017-11-16T03:42:10.127Z,43.58
2017-11-16T03:44:38.528Z,44.47
2017-11-16T03:47:07.024Z,42.42
2017-11-16T03:49:35.406Z,39.78
2017-11-16T03:52:03.786Z,44.33
2017-11-16T03:54:32.182Z,40.50
2017-11-16T03:57:00.578Z,39.92
2017-11-16T03:59:29.097Z,39.20
2017-11-16T04:01:57.470Z,36.50
2017-11-16T04:04:25.839Z,30.77
2017-11-16T04:06:54.231Z,32.13
2017-11-16T04:09:22.611Z,30.23
2017-11-16T04:11:51.215Z,29.12
2017-11-16T04:14:19.581Z,28.75
2017-11-16T04:16:47.958Z,30.08
2017-11-16T04:19:16.366Z,27.58
2017-11-16T04:21:44.768Z,28.25
2017-11-16T04:24:13.403Z,30.62
2017-11-16T04:26:41.912Z,31.77
2017-11-16T04:29:10.299Z,29.55
2017-11-16T04:31:38.698Z,31.15
2017-11-16T04:34:07.839Z,30.35
2017-11-16T04:36:36.496Z,30.12
2017-11-16T04:39:04.889Z,29.60
2017-11-16T04:41:33.254Z,31.20
2017-11-16T04:44:01.648Z,30.40
2017-11-16T04:46:30.028Z,29.98
2017-11-16T04:48:58.421Z,28.52
2017-11-16T04:51:26.794Z,30.65
2017-11-16T04:53:55.182Z,29.83
2017-11-16T04:56:23.596Z,29.00
2017-11-16T04:58:51.971Z,31.33
2017-11-16T05:01:20.398Z,31.95
2017-11-16T05:03:48.766Z,29.37
2017-11-16T05:06:17.147Z,28.58
2017-11-16T05:08:45.579Z,30.08
2017-11-16T05:11:13.946Z,30.37
2017-11-16T05:13:42.624Z,30.85
2017-11-16T05:16:11.007Z,31.25
2017-11-16T05:18:39.373Z,28.45
2017-11-16T05:21:07.764Z,30.17
2017-11-16T05:23:36.159Z,29.52
2017-11-16T05:26:04.670Z,31.25
2017-11-16T05:28:33.045Z,32.63
2017-11-16T05:31:02.192Z,31.05
2017-11-16T05:33:30.612Z,31.27
2017-11-16T05:35:59.742Z,27.85
2017-11-16T05:38:28.159Z,31.33
2017-11-16T05:40:56.528Z,30.75
2017-11-16T05:43:24.895Z,30.83
2017-11-16T05:45:53.285Z,28.70
2017-11-16T05:48:21.655Z,29.67
2017-11-16T05:50:50.190Z,28.67
2017-11-16T05:53:19.339Z,31.02
2017-11-16T05:55:48.476Z,29.10
2017-11-16T05:58:17.640Z,28.95
2017-11-16T06:00:46.015Z,30.45
2017-11-16T06:03:14.678Z,31.05
2017-11-16T06:05:43.071Z,31.60
2017-11-16T06:08:11.444Z,29.23
2017-11-16T06:10:39.845Z,29.30
2017-11-16T06:13:08.221Z,31.17
2017-11-16T06:15:36.984Z,34.85
2017-11-16T06:18:05.357Z,30.50
2017-11-16T06:20:33.735Z,29.05
2017-11-16T06:23:02.129Z,33.75
2017-11-16T06:25:30.513Z,33.67
2017-11-16T06:27:58.946Z,31.37
2017-11-16T06:30:28.083Z,31.20
2017-11-16T06:32:56.450Z,30.37
2017-11-16T06:35:24.834Z,29.95
2017-11-16T06:37:53.228Z,32.22
2017-11-16T06:40:21.651Z,32.20
2017-11-16T06:42:50.787Z,32.45
2017-11-16T06:45:19.211Z,30.17
2017-11-16T06:47:47.608Z,29.05
2017-11-16T06:50:15.976Z,32.08
2017-11-16T06:52:45.427Z,28.52
2017-11-16T06:55:13.801Z,29.08
2017-11-16T06:57:42.175Z,29.35
2017-11-16T07:00:10.578Z,27.62
2017-11-16T07:02:38.950Z,29.37
2017-11-16T07:05:08.351Z,27.98
2017-11-16T07:07:36.727Z,33.28
2017-11-16T07:10:05.106Z,27.90
2017-11-16T07:12:33.491Z,29.40
2017-11-16T07:15:01.892Z,29.58
2017-11-16T07:17:30.545Z,29.73
2017-11-16T07:19:58.932Z,30.67
2017-11-16T07:22:27.307Z,29.80
2017-11-16T07:24:55.709Z,30.17
2017-11-16T07:27:24.076Z,31.17
2017-11-16T07:29:52.557Z,30.15
2017-11-16T07:32:20.966Z,26.05
2017-11-16T07:34:49.337Z,28.12
2017-11-16T07:37:17.735Z,28.35
2017-11-16T07:39:46.890Z,29.73
2017-11-16T07:42:15.387Z,27.67
2017-11-16T07:44:43.772Z,26.65
2017-11-16T07:47:12.164Z,29.42
2017-11-16T07:49:41.357Z,26.73
2017-11-16T07:52:10.512Z,28.92
2017-11-16T07:54:39.021Z,27.90
2017-11-16T07:57:07.398Z,25.67
2017-11-16T07:59:35.775Z,30.70
2017-11-16T08:02:04.168Z,27.67
2017-11-16T08:04:33.328Z,29.63
2017-11-16T08:07:02.106Z,27.60
2017-11-16T08:09:30.474Z,26.65
2017-11-16T08:11:58.866Z,22.95
2017-11-16T08:14:27.268Z,25.95
2017-11-16T08:16:55.648Z,22.15
2017-11-16T08:19:24.146Z,29.17
2017-11-16T08:21:52.515Z,24.42
2017-11-16T08:24:20.883Z,27.23
2017-11-16T08:26:49.317Z,28.80
2017-11-16T08:29:17.695Z,27.02
2017-11-16T08:31:46.127Z,27.80
2017-11-16T08:34:14.499Z,28.05
2017-11-16T08:36:42.882Z,28.65
2017-11-16T08:39:11.340Z,29.63
2017-11-16T08:41:39.720Z,28.98
2017-11-16T08:44:08.198Z,30.02
2017-11-16T08:46:36.582Z,28.27
2017-11-16T08:49:04.976Z,28.12
2017-11-16T08:51:33.401Z,26.85
2017-11-16T08:54:01.764Z,25.75
2017-11-16T08:56:31.071Z,25.80
2017-11-16T08:58:59.472Z,26.27
2017-11-16T09:01:27.853Z,24.20
2017-11-16T09:03:56.257Z,24.67
2017-11-16T09:06:24.638Z,24.87
2017-11-16T09:08:53.309Z,25.75
2017-11-16T09:11:21.701Z,27.67
2017-11-16T09:13:50.115Z,24.58
2017-11-16T09:16:19.314Z,25.20
2017-11-16T09:18:48.488Z,27.75
2017-11-16T09:21:17.027Z,29.55
2017-11-16T09:23:45.415Z,27.67
2017-11-16T09:26:13.802Z,25.27
2017-11-16T09:28:42.220Z,25.10
2017-11-16T09:31:10.599Z,26.73
2017-11-16T09:33:38.992Z,27.60
2017-11-16T09:36:08.167Z,27.67
2017-11-16T09:38:36.592Z,27.65
2017-11-16T09:41:05.006Z,26.50
2017-11-16T09:43:33.428Z,27.27
2017-11-16T09:46:02.568Z,29.77
2017-11-16T09:48:30.970Z,27.20
2017-11-16T09:50:59.369Z,27.70
2017-11-16T09:53:27.735Z,27.62
2017-11-16T09:55:57.637Z,27.30
2017-11-16T09:58:26.009Z,26.30
2017-11-16T10:00:54.453Z,30.42
2017-11-16T10:03:22.829Z,28.50
2017-11-16T10:05:51.204Z,30.48
2017-11-16T10:08:19.604Z,29.25
2017-11-16T10:10:47.980Z,26.83
2017-11-16T10:13:16.396Z,28.67
2017-11-16T10:15:44.778Z,28.10
2017-11-16T10:18:13.236Z,27.05
2017-11-16T10:20:41.631Z,26.58
2017-11-16T10:23:10.094Z,26.83
2017-11-16T10:25:38.768Z,27.25
2017-11-16T10:28:07.148Z,28.20
2017-11-16T10:30:35.640Z,24.40
2017-11-16T10:33:04.051Z,25.62
2017-11-16T10:35:32.436Z,26.85
2017-11-16T10:38:00.977Z,28.42
2017-11-16T10:40:29.356Z,28.33
2017-11-16T10:42:57.777Z,26.33
2017-11-16T10:45:26.167Z,24.90
2017-11-16T10:47:55.418Z,26.30
2017-11-16T10:50:23.996Z,25.75
2017-11-16T10:52:52.385Z,26.87
2017-11-16T10:55:20.746Z,26.55
2017-11-16T10:57:49.911Z,25.20
2017-11-16T11:00:18.289Z,27.10
2017-11-16T11:02:46.795Z,26.35
2017-11-16T11:05:15.176Z,22.70
2017-11-16T11:07:43.557Z,25.20
2017-11-16T11:10:11.951Z,23.33
2017-11-16T11:12:40.331Z,23.60
2017-11-16T11:15:08.996Z,27.08
2017-11-16T11:17:37.371Z,25.80
2017-11-16T11:20:05.752Z,24.55
2017-11-16T11:22:34.146Z,27.02
2017-11-16T11:25:02.536Z,22.70
2017-11-16T11:27:30.954Z,24.60
2017-11-16T11:30:00.105Z,25.85
2017-11-16T11:32:28.488Z,24.80
2017-11-16T11:34:56.887Z,24.70
2017-11-16T11:37:26.143Z,23.75
2017-11-16T11:39:54.703Z,25.23
2017-11-16T11:42:23.093Z,43.10
2017-11-16T11:44:51.493Z,23.50
2017-11-16T11:47:19.891Z,22.90
2017-11-16T11:49:48.292Z,22.23
2017-11-16T11:52:17.032Z,22.85
2017-11-16T11:54:45.395Z,25.52
2017-11-16T11:57:13.778Z,24.27
2017-11-16T11:59:42.168Z,24.17
2017-11-16T12:02:10.535Z,24.40
2017-11-16T12:04:39.069Z,23.30
2017-11-16T12:07:07.444Z,24.95
2017-11-16T12:09:35.811Z,23.75
2017-11-16T12:12:04.270Z,23.65
2017-11-16T12:14:32.752Z,24.65
2017-11-16T12:17:01.272Z,23.38
2017-11-16T12:19:30.408Z,24.75
2017-11-16T12:21:58.793Z,21.37
2017-11-16T12:24:27.200Z,26.00
2017-11-16T12:26:55.568Z,21.15
2017-11-16T12:29:24.101Z,22.33
2017-11-16T12:31:53.243Z,22.95
2017-11-16T12:34:21.623Z,23.17
2017-11-16T12:36:50.024Z,25.35
2017-11-16T12:39:18.420Z,24.12
2017-11-16T12:41:47.224Z,22.73
2017-11-16T12:44:15.603Z,23.60
2017-11-16T12:46:43.992Z,23.55
2017-11-16T12:49:12.407Z,24.35
2017-11-16T12:51:40.831Z,21.62
2017-11-16T12:54:10.279Z,24.17
2017-11-16T12:56:38.680Z,25.10
2017-11-16T12:59:07.050Z,22.13
2017-11-16T13:01:35.451Z,24.98
2017-11-16T13:04:03.838Z,23.85
2017-11-16T13:06:32.344Z,25.55
2017-11-16T13:09:00.731Z,23.05
2017-11-16T13:11:29.106Z,24.75
2017-11-16T13:13:57.499Z,26.20
2017-11-16T13:16:25.870Z,25.60
2017-11-16T13:18:54.679Z,23.87
2017-11-16T13:21:23.051Z,24.77
2017-11-16T13:23:51.433Z,24.15
2017-11-16T13:26:19.832Z,25.60
2017-11-16T13:28:48.212Z,26.10
2017-11-16T13:31:16.637Z,23.10
2017-11-16T13:33:45.777Z,21.85
2017-11-16T13:36:14.144Z,23.98
2017-11-16T13:38:42.563Z,23.95
2017-11-16T13:41:11.012Z,23.60
2017-11-16T13:43:39.799Z,21.62
2017-11-16T13:46:08.202Z,23.00
2017-11-16T13:48:36.580Z,24.23
2017-11-16T13:51:04.975Z,22.77
2017-11-16T13:53:34.116Z,23.55
2017-11-16T13:56:02.527Z,21.65
2017-11-16T13:58:30.902Z,23.75
2017-11-16T14:00:59.313Z,24.85
2017-11-16T14:03:28.473Z,24.98
2017-11-16T14:05:56.843Z,25.17
2017-11-16T14:08:25.442Z,24.27
2017-11-16T14:10:53.827Z,23.45
2017-11-16T14:13:22.204Z,26.15
2017-11-16T14:15:50.598Z,24.67
2017-11-16T14:18:19.001Z,24.90
2017-11-16T14:20:48.340Z,25.70
2017-11-16T14:23:16.713Z,26.33
2017-11-16T14:25:45.099Z,24.10
2017-11-16T14:28:13.501Z,23.10
2017-11-16T14:30:42.779Z,24.00
2017-11-16T14:33:11.211Z,24.23
2017-11-16T14:35:40.356Z,24.10
2017-11-16T14:38:09.543Z,24.02
2017-11-16T14:40:37.942Z,24.45
2017-11-16T14:43:06.335Z,24.98
2017-11-16T14:45:35.189Z,23.00
2017-11-16T14:48:03.612Z,23.67
2017-11-16T14:50:32.057Z,25.98
2017-11-16T14:53:01.241Z,24.37
2017-11-16T14:55:29.642Z,24.35
2017-11-16T14:57:58.422Z,25.08
2017-11-16T15:00:26.823Z,24.83
2017-11-16T15:02:55.230Z,23.65
2017-11-16T15:05:24.413Z,24.27
2017-11-16T15:07:52.795Z,26.35
2017-11-16T15:10:21.205Z,23.48
2017-11-16T15:12:49.603Z,22.75
2017-11-16T15:15:18.031Z,26.50
2017-11-16T15:17:46.433Z,25.95
2017-11-16T15:20:14.849Z,25.65
2017-11-16T15:22:43.632Z,27.87
2017-11-16T15:25:12.044Z,27.25
2017-11-16T15:27:40.968Z,28.55
2017-11-16T15:30:09.708Z,26.50
2017-11-16T15:32:38.122Z,30.58
2017-11-16T15:35:07.308Z,28.27
2017-11-16T15:37:35.684Z,26.98
2017-11-16T15:40:04.053Z,28.77
2017-11-16T15:42:32.867Z,29.12
2017-11-16T15:45:02.012Z,28.25
2017-11-16T15:47:30.592Z,28.15
2017-11-16T15:49:58.980Z,29.50
2017-11-16T15:52:27.356Z,28.38
2017-11-16T15:54:55.760Z,30.80
2017-11-16T15:57:24.140Z,32.33
2017-11-16T15:59:52.655Z,31.00
2017-11-16T16:02:21.045Z,31.52
2017-11-16T16:04:49.420Z,31.62
2017-11-16T16:07:17.825Z,31.12
2017-11-16T16:09:46.264Z,30.52
2017-11-16T16:12:15.535Z,30.20
2017-11-16T16:14:43.915Z,32.20
2017-11-16T16:17:12.296Z,30.98
2017-11-16T16:19:40.703Z,31.30
2017-11-16T16:22:09.835Z,32.25
2017-11-16T16:24:38.460Z,31.12
2017-11-16T16:27:06.893Z,29.67
2017-11-16T16:29:35.266Z,29.80
2017-11-16T16:32:03.662Z,26.33
2017-11-16T16:34:32.075Z,25.58
2017-11-16T16:37:00.760Z,27.50
2017-11-16T16:39:29.971Z,27.15
2017-11-16T16:41:59.126Z,26.80
2017-11-16T16:44:27.559Z,23.75
2017-11-16T16:46:56.754Z,25.10
2017-11-16T16:49:26.791Z,23.30
2017-11-16T16:51:56.192Z,26.45
2017-11-16T16:54:24.582Z,25.55
2017-11-16T16:56:53.117Z,26.87
2017-11-16T16:59:21.521Z,25.75
2017-11-16T17:01:50.118Z,26.58
2017-11-16T17:04:18.590Z,25.35
2017-11-16T17:06:47.191Z,23.70
2017-11-16T17:09:15.602Z,25.27
2017-11-16T17:11:44.065Z,26.50
2017-11-16T17:14:12.852Z,24.75
2017-11-16T17:16:41.341Z,26.48
2017-11-16T17:19:09.729Z,27.87
2017-11-16T17:21:38.155Z,28.70
2017-11-16T17:24:06.543Z,26.92
2017-11-16T17:26:34.979Z,27.70
2017-11-16T17:29:03.420Z,32.38
2017-11-16T17:31:31.919Z,28.60
2017-11-16T17:34:00.312Z,29.42
2017-11-16T17:36:28.755Z,26.20
2017-11-16T17:38:57.317Z,29.92
2017-11-16T17:41:25.845Z,27.52
2017-11-16T17:43:54.231Z,29.52
2017-11-16T17:46:22.859Z,28.83
2017-11-16T17:48:51.276Z,30.15
2017-11-16T17:51:19.653Z,28.15
2017-11-16T17:53:48.071Z,28.00
2017-11-16T17:56:16.492Z,28.65
2017-11-16T17:58:44.868Z,26.98
2017-11-16T18:01:13.273Z,29.20
2017-11-16T18:03:41.656Z,29.17
2017-11-16T18:06:10.529Z,28.08
2017-11-16T18:08:38.900Z,27.52
2017-11-16T18:11:07.282Z,29.08
2017-11-16T18:13:35.755Z,27.13
2017-11-16T18:16:04.237Z,30.62
2017-11-16T18:18:32.680Z,27.15
2017-11-16T18:21:01.900Z,30.25
2017-11-16T18:23:31.101Z,38.75
2017-11-16T18:25:59.516Z,31.35
2017-11-16T18:28:28.112Z,29.23
2017-11-16T18:30:57.048Z,29.15
2017-11-16T18:33:25.581Z,26.75
2017-11-16T18:35:54.414Z,29.02
2017-11-16T18:38:22.880Z,27.33
2017-11-16T18:40:52.020Z,28.00
2017-11-16T18:43:20.755Z,28.98
2017-11-16T18:45:49.308Z,27.62
2017-11-16T18:48:17.710Z,27.55
2017-11-16T18:50:46.909Z,28.70
2017-11-16T18:53:15.385Z,29.58
2017-11-16T18:55:45.098Z,24.30
2017-11-16T18:58:13.728Z,26.60
2017-11-16T19:00:42.193Z,24.73
2017-11-16T19:03:11.355Z,24.98
2017-11-16T19:05:39.837Z,24.75
2017-11-16T19:08:08.710Z,26.05
2017-11-16T19:10:37.171Z,28.25
2017-11-16T19:13:05.589Z,28.55
2017-11-16T19:15:34.326Z,26.60
2017-11-16T19:18:03.064Z,25.02
2017-11-16T19:20:32.111Z,27.10
2017-11-16T19:23:00.650Z,28.45
2017-11-16T19:25:29.560Z,25.77
2017-11-16T19:27:58.043Z,28.98
2017-11-16T19:30:26.538Z,23.67
2017-11-16T19:32:55.083Z,25.10
2017-11-16T19:35:23.758Z,26.73
2017-11-16T19:37:53.216Z,29.48
2017-11-16T19:40:21.986Z,24.30
2017-11-16T19:42:50.647Z,26.23
2017-11-16T19:45:19.701Z,26.87
2017-11-16T19:47:48.162Z,23.92
2017-11-16T19:50:16.614Z,23.25
2017-11-16T19:52:46.309Z,24.60
2017-11-16T19:55:15.495Z,25.88
2017-11-16T19:57:44.823Z,21.77
2017-11-16T20:00:14.195Z,23.77
2017-11-16T20:02:43.464Z,24.30
2017-11-16T20:05:12.203Z,25.05
2017-11-16T20:07:41.710Z,25.12
2017-11-16T20:10:11.884Z,23.10
2017-11-16T20:12:41.339Z,21.83
2017-11-16T20:15:10.188Z,24.10
2017-11-16T20:17:39.846Z,21.73
2017-11-16T20:20:08.704Z,19.87
2017-11-16T20:22:37.843Z,21.80
2017-11-16T20:25:06.621Z,20.17
2017-11-16T20:27:35.747Z,19.37
2017-11-16T20:30:04.788Z,19.05
2017-11-16T20:32:33.655Z,20.55
2017-11-16T20:35:03.662Z,20.98
2017-11-16T20:37:38.045Z,20.45
2017-11-16T20:40:12.862Z,19.20
2017-11-16T20:42:47.576Z,22.50
2017-11-16T20:48:42.960Z,23.52
2017-11-16T20:51:18.225Z,24.80
2017-11-16T20:54:01.939Z,22.67
2017-11-16T20:56:31.083Z,24.30
2017-11-16T20:59:00.049Z,24.37
2017-11-16T21:01:28.833Z,22.58
2017-11-16T21:03:58.644Z,23.90
2017-11-16T21:06:28.540Z,25.75
2017-11-16T21:08:58.639Z,22.48
2017-11-16T21:11:27.679Z,21.60
2017-11-16T21:13:56.505Z,25.00
2017-11-16T21:16:25.529Z,23.73
2017-11-16T21:18:54.448Z,24.75
2017-11-16T21:21:24.380Z,22.83
2017-11-16T21:23:53.951Z,23.45
2017-11-16T21:26:23.648Z,25.40
2017-11-16T21:28:52.589Z,24.08
2017-11-16T21:31:21.574Z,25.23
2017-11-16T21:33:50.772Z,25.92
2017-11-16T21:36:19.665Z,24.67
2017-11-16T21:38:49.413Z,25.33
2017-11-16T21:41:19.198Z,23.95
2017-11-16T21:43:48.295Z,25.70
2017-11-16T21:46:17.132Z,24.48
2017-11-16T21:48:46.818Z,25.05
2017-11-16T21:51:16.484Z,24.30
2017-11-16T21:53:45.319Z,23.40
2017-11-16T21:56:14.355Z,23.35
2017-11-16T21:58:43.226Z,24.15
2017-11-16T22:01:12.525Z,21.85
2017-11-16T22:03:41.548Z,23.05
2017-11-16T22:06:10.345Z,22.13
2017-11-16T22:08:39.251Z,22.05
2017-11-16T22:11:08.266Z,21.12
2017-11-16T22:13:37.072Z,19.23
2017-11-16T22:16:05.964Z,20.73
2017-11-16T22:18:34.826Z,18.60
2017-11-16T22:21:03.775Z,20.08
2017-11-16T22:23:33.264Z,20.62
2017-11-16T22:26:02.184Z,20.40
2017-11-16T22:28:30.932Z,19.95
2017-11-16T22:30:59.409Z,18.83
2017-11-16T22:33:27.927Z,20.67
2017-11-16T22:35:56.426Z,22.08
2017-11-16T22:38:25.723Z,16.75
2017-11-16T22:40:55.081Z,18.65
2017-11-16T22:43:24.379Z,17.90
2017-11-16T22:45:53.027Z,18.02
2017-11-16T22:48:21.612Z,19.15
2017-11-16T22:50:50.163Z,18.73
2017-11-16T22:53:18.542Z,17.58
2017-11-16T22:55:46.938Z,19.40
2017-11-16T22:58:16.100Z,18.30
2017-11-16T23:00:44.532Z,17.65
2017-11-16T23:03:13.378Z,19.52
2017-11-16T23:05:42.555Z,17.42
2017-11-16T23:08:10.940Z,18.00
2017-11-16T23:10:39.350Z,19.30
2017-11-16T23:13:08.491Z,19.52
2017-11-16T23:15:37.204Z,21.45
2017-11-16T23:18:05.567Z,20.30
2017-11-16T23:20:33.940Z,20.23
2017-11-16T23:23:02.438Z,19.42
2017-11-16T23:25:30.820Z,20.65
2017-11-16T23:27:59.490Z,21.08
2017-11-16T23:30:27.888Z,21.27
2017-11-16T23:32:56.268Z,22.02
2017-11-16T23:35:24.672Z,26.70
2017-11-16T23:37:53.804Z,23.38
2017-11-16T23:40:22.599Z,24.50
2017-11-16T23:42:50.963Z,25.08
2017-11-16T23:45:19.335Z,27.95
2017-11-16T23:47:47.746Z,27.08
2017-11-16T23:50:16.113Z,28.90
2017-11-16T23:52:44.903Z,25.15
2017-11-16T23:55:13.290Z,27.05
2017-11-16T23:57:41.659Z,28.20
